sensor_id;sensor_type;location;lat;lon;timestamp;temperature;humidity
13344;DHT22;6741;48.964;9.406;2023-07-29T00:00:38;16.80;99.90
13344;DHT22;6741;48.964;9.406;2023-07-29T00:03:06;16.80;99.90
13344;DHT22;6741;48.964;9.406;2023-07-29T00:05:33;16.70;99.90
13344;DHT22;6741;48.964;9.406;2023-07-29T00:08:00;16.70;99.90
13344;DHT22;6741;48.964;9.406;2023-07-29T00:10:27;16.70;99.90
13344;DHT22;6741;48.964;9.406;2023-07-29T00:12:54;16.70;99.90
13344;DHT22;6741;48.964;9.406;2023-07-29T00:15:21;16.80;99.90
13344;DHT22;6741;48.964;9.406;2023-07-29T00:17:48;16.80;99.90
13344;DHT22;6741;48.964;9.406;2023-07-29T00:20:16;16.80;99.90
13344;DHT22;6741;48.964;9.406;2023-07-29T00:22:43;16.80;99.90
13344;DHT22;6741;48.964;9.406;2023-07-29T00:25:09;16.90;99.90
13344;DHT22;6741;48.964;9.406;2023-07-29T00:27:36;16.90;99.90
13344;DHT22;6741;48.964;9.406;2023-07-29T00:30:04;16.90;99.90
13344;DHT22;6741;48.964;9.406;2023-07-29T00:32:31;16.80;99.90
13344;DHT22;6741;48.964;9.406;2023-07-29T00:34:58;16.80;99.90
13344;DHT22;6741;48.964;9.406;2023-07-29T00:37:27;16.80;99.90
13344;DHT22;6741;48.964;9.406;2023-07-29T00:39:54;16.80;99.90
13344;DHT22;6741;48.964;9.406;2023-07-29T00:42:21;16.80;99.90
13344;DHT22;6741;48.964;9.406;2023-07-29T00:44:48;16.80;99.90
13344;DHT22;6741;48.964;9.406;2023-07-29T00:47:16;16.70;99.90
13344;DHT22;6741;48.964;9.406;2023-07-29T00:49:44;16.80;99.90
13344;DHT22;6741;48.964;9.406;2023-07-29T00:52:11;16.80;99.90
13344;DHT22;6741;48.964;9.406;2023-07-29T00:54:40;16.80;99.90
13344;DHT22;6741;48.964;9.406;2023-07-29T00:57:08;16.80;99.90
13344;DHT22;6741;48.964;9.406;2023-07-29T00:59:35;16.80;99.90
13344;DHT22;6741;48.964;9.406;2023-07-29T01:02:02;16.80;99.90
13344;DHT22;6741;48.964;9.406;2023-07-29T01:04:30;16.80;99.90
13344;DHT22;6741;48.964;9.406;2023-07-29T01:07:16;16.80;99.90
13344;DHT22;6741;48.964;9.406;2023-07-29T01:09:53;16.80;99.90
13344;DHT22;6741;48.964;9.406;2023-07-29T01:12:28;16.80;99.90
13344;DHT22;6741;48.964;9.406;2023-07-29T01:15:04;16.80;99.90
13344;DHT22;6741;48.964;9.406;2023-07-29T01:17:40;16.80;99.90
13344;DHT22;6741;48.964;9.406;2023-07-29T01:20:10;16.80;99.90
13344;DHT22;6741;48.964;9.406;2023-07-29T01:22:38;16.80;99.90
13344;DHT22;6741;48.964;9.406;2023-07-29T01:25:07;16.80;99.90
13344;DHT22;6741;48.964;9.406;2023-07-29T01:27:34;16.80;99.90
13344;DHT22;6741;48.964;9.406;2023-07-29T01:30:02;16.80;99.90
13344;DHT22;6741;48.964;9.406;2023-07-29T01:32:34;16.90;99.90
13344;DHT22;6741;48.964;9.406;2023-07-29T01:35:15;16.80;99.90
13344;DHT22;6741;48.964;9.406;2023-07-29T01:37:46;16.80;99.90
13344;DHT22;6741;48.964;9.406;2023-07-29T01:40:16;16.70;99.90
13344;DHT22;6741;48.964;9.406;2023-07-29T01:42:44;16.70;99.90
13344;DHT22;6741;48.964;9.406;2023-07-29T01:45:12;16.70;99.90
13344;DHT22;6741;48.964;9.406;2023-07-29T01:47:39;16.70;99.90
13344;DHT22;6741;48.964;9.406;2023-07-29T01:50:08;16.70;99.90
13344;DHT22;6741;48.964;9.406;2023-07-29T01:52:35;16.70;99.90
13344;DHT22;6741;48.964;9.406;2023-07-29T01:55:02;16.70;99.90
13344;DHT22;6741;48.964;9.406;2023-07-29T01:57:30;16.70;99.90
13344;DHT22;6741;48.964;9.406;2023-07-29T01:59:57;16.70;99.90
13344;DHT22;6741;48.964;9.406;2023-07-29T02:02:23;16.70;99.90
13344;DHT22;6741;48.964;9.406;2023-07-29T02:04:50;16.70;99.90
13344;DHT22;6741;48.964;9.406;2023-07-29T02:07:18;16.70;99.90
13344;DHT22;6741;48.964;9.406;2023-07-29T02:09:45;16.60;99.90
13344;DHT22;6741;48.964;9.406;2023-07-29T02:12:12;16.70;99.90
13344;DHT22;6741;48.964;9.406;2023-07-29T02:14:40;16.60;99.90
13344;DHT22;6741;48.964;9.406;2023-07-29T02:17:07;16.60;99.90
13344;DHT22;6741;48.964;9.406;2023-07-29T02:19:34;16.70;99.90
13344;DHT22;6741;48.964;9.406;2023-07-29T02:22:01;16.70;99.90
13344;DHT22;6741;48.964;9.406;2023-07-29T02:24:28;16.70;99.90
13344;DHT22;6741;48.964;9.406;2023-07-29T02:26:55;16.70;99.90
13344;DHT22;6741;48.964;9.406;2023-07-29T02:29:21;16.70;99.90
13344;DHT22;6741;48.964;9.406;2023-07-29T02:31:50;16.70;99.90
13344;DHT22;6741;48.964;9.406;2023-07-29T02:34:17;16.60;99.90
13344;DHT22;6741;48.964;9.406;2023-07-29T02:36:44;16.60;99.90
13344;DHT22;6741;48.964;9.406;2023-07-29T02:39:11;16.60;99.90
13344;DHT22;6741;48.964;9.406;2023-07-29T02:41:38;16.60;99.90
13344;DHT22;6741;48.964;9.406;2023-07-29T02:44:05;16.60;99.90
13344;DHT22;6741;48.964;9.406;2023-07-29T02:46:32;16.60;99.90
13344;DHT22;6741;48.964;9.406;2023-07-29T02:49:02;16.50;99.90
13344;DHT22;6741;48.964;9.406;2023-07-29T02:51:29;16.50;99.90
13344;DHT22;6741;48.964;9.406;2023-07-29T02:53:56;16.50;99.90
13344;DHT22;6741;48.964;9.406;2023-07-29T02:56:23;16.50;99.90
13344;DHT22;6741;48.964;9.406;2023-07-29T02:58:50;16.50;99.90
13344;DHT22;6741;48.964;9.406;2023-07-29T03:01:17;16.50;99.90
13344;DHT22;6741;48.964;9.406;2023-07-29T03:03:44;16.50;99.90
13344;DHT22;6741;48.964;9.406;2023-07-29T03:06:14;16.40;99.90
13344;DHT22;6741;48.964;9.406;2023-07-29T03:08:41;16.40;99.90
13344;DHT22;6741;48.964;9.406;2023-07-29T03:11:10;16.40;99.90
13344;DHT22;6741;48.964;9.406;2023-07-29T03:13:37;16.40;99.90
13344;DHT22;6741;48.964;9.406;2023-07-29T03:16:07;16.40;99.90
13344;DHT22;6741;48.964;9.406;2023-07-29T03:18:34;16.40;99.90
13344;DHT22;6741;48.964;9.406;2023-07-29T03:21:02;16.40;99.90
13344;DHT22;6741;48.964;9.406;2023-07-29T03:23:31;16.30;99.90
13344;DHT22;6741;48.964;9.406;2023-07-29T03:25:59;16.30;99.90
13344;DHT22;6741;48.964;9.406;2023-07-29T03:28:28;16.30;99.90
13344;DHT22;6741;48.964;9.406;2023-07-29T03:30:56;16.40;99.90
13344;DHT22;6741;48.964;9.406;2023-07-29T03:33:24;16.30;99.90
13344;DHT22;6741;48.964;9.406;2023-07-29T03:35:52;16.30;99.90
13344;DHT22;6741;48.964;9.406;2023-07-29T03:38:19;16.30;99.90
13344;DHT22;6741;48.964;9.406;2023-07-29T03:40:47;16.30;99.90
13344;DHT22;6741;48.964;9.406;2023-07-29T03:43:14;16.30;99.90
13344;DHT22;6741;48.964;9.406;2023-07-29T03:45:41;16.20;99.90
13344;DHT22;6741;48.964;9.406;2023-07-29T03:48:08;16.20;99.90
13344;DHT22;6741;48.964;9.406;2023-07-29T03:50:36;16.20;99.90
13344;DHT22;6741;48.964;9.406;2023-07-29T03:53:03;16.20;99.90
13344;DHT22;6741;48.964;9.406;2023-07-29T03:55:30;16.30;99.90
13344;DHT22;6741;48.964;9.406;2023-07-29T03:57:59;16.30;99.90
13344;DHT22;6741;48.964;9.406;2023-07-29T04:00:26;16.30;99.90
13344;DHT22;6741;48.964;9.406;2023-07-29T04:02:53;16.40;99.90
13344;DHT22;6741;48.964;9.406;2023-07-29T04:05:20;16.40;99.90
13344;DHT22;6741;48.964;9.406;2023-07-29T04:07:47;16.40;99.90
13344;DHT22;6741;48.964;9.406;2023-07-29T04:10:14;16.30;99.90
13344;DHT22;6741;48.964;9.406;2023-07-29T04:12:41;16.30;99.90
13344;DHT22;6741;48.964;9.406;2023-07-29T04:15:09;16.40;99.90
13344;DHT22;6741;48.964;9.406;2023-07-29T04:17:36;16.40;99.90
13344;DHT22;6741;48.964;9.406;2023-07-29T04:20:04;16.50;99.90
13344;DHT22;6741;48.964;9.406;2023-07-29T04:22:30;16.50;99.90
13344;DHT22;6741;48.964;9.406;2023-07-29T04:24:57;16.50;99.90
13344;DHT22;6741;48.964;9.406;2023-07-29T04:27:24;16.50;99.90
13344;DHT22;6741;48.964;9.406;2023-07-29T04:29:51;16.50;99.90
13344;DHT22;6741;48.964;9.406;2023-07-29T04:32:20;16.40;99.90
13344;DHT22;6741;48.964;9.406;2023-07-29T04:34:46;16.40;99.90
13344;DHT22;6741;48.964;9.406;2023-07-29T04:37:13;16.40;99.90
13344;DHT22;6741;48.964;9.406;2023-07-29T04:39:40;16.40;99.90
13344;DHT22;6741;48.964;9.406;2023-07-29T04:42:07;16.40;99.90
13344;DHT22;6741;48.964;9.406;2023-07-29T04:44:34;16.50;99.90
13344;DHT22;6741;48.964;9.406;2023-07-29T04:47:01;16.50;99.90
13344;DHT22;6741;48.964;9.406;2023-07-29T04:49:29;16.50;99.90
13344;DHT22;6741;48.964;9.406;2023-07-29T04:51:56;16.50;99.90
13344;DHT22;6741;48.964;9.406;2023-07-29T04:54:22;16.50;99.90
13344;DHT22;6741;48.964;9.406;2023-07-29T04:56:49;16.50;99.90
13344;DHT22;6741;48.964;9.406;2023-07-29T04:59:16;16.60;99.90
13344;DHT22;6741;48.964;9.406;2023-07-29T05:01:43;16.60;99.90
13344;DHT22;6741;48.964;9.406;2023-07-29T05:04:10;16.60;99.90
13344;DHT22;6741;48.964;9.406;2023-07-29T05:06:38;16.60;99.90
13344;DHT22;6741;48.964;9.406;2023-07-29T05:09:14;16.60;99.90
13344;DHT22;6741;48.964;9.406;2023-07-29T05:11:42;16.60;99.90
13344;DHT22;6741;48.964;9.406;2023-07-29T05:14:11;16.60;99.90
13344;DHT22;6741;48.964;9.406;2023-07-29T05:16:38;16.60;99.90
13344;DHT22;6741;48.964;9.406;2023-07-29T05:19:04;16.60;99.90
13344;DHT22;6741;48.964;9.406;2023-07-29T05:21:31;16.60;99.90
13344;DHT22;6741;48.964;9.406;2023-07-29T05:23:59;16.60;99.90
13344;DHT22;6741;48.964;9.406;2023-07-29T05:26:26;16.60;99.90
13344;DHT22;6741;48.964;9.406;2023-07-29T05:28:53;16.70;99.90
13344;DHT22;6741;48.964;9.406;2023-07-29T05:31:20;16.80;99.90
13344;DHT22;6741;48.964;9.406;2023-07-29T05:33:47;16.80;99.90
13344;DHT22;6741;48.964;9.406;2023-07-29T05:36:13;16.90;99.90
13344;DHT22;6741;48.964;9.406;2023-07-29T05:38:40;17.00;99.90
13344;DHT22;6741;48.964;9.406;2023-07-29T05:41:08;17.10;99.90
13344;DHT22;6741;48.964;9.406;2023-07-29T05:43:35;17.30;99.90
13344;DHT22;6741;48.964;9.406;2023-07-29T05:46:02;17.40;99.90
13344;DHT22;6741;48.964;9.406;2023-07-29T05:48:28;17.40;99.90
13344;DHT22;6741;48.964;9.406;2023-07-29T05:50:55;17.40;99.90
13344;DHT22;6741;48.964;9.406;2023-07-29T05:53:22;17.50;99.90
13344;DHT22;6741;48.964;9.406;2023-07-29T05:55:49;17.50;99.90
13344;DHT22;6741;48.964;9.406;2023-07-29T05:58:17;17.60;99.90
13344;DHT22;6741;48.964;9.406;2023-07-29T06:00:44;17.60;99.90
13344;DHT22;6741;48.964;9.406;2023-07-29T06:03:11;17.60;99.90
13344;DHT22;6741;48.964;9.406;2023-07-29T06:05:38;17.70;99.90
13344;DHT22;6741;48.964;9.406;2023-07-29T06:08:05;17.80;99.90
13344;DHT22;6741;48.964;9.406;2023-07-29T06:10:34;17.80;99.90
13344;DHT22;6741;48.964;9.406;2023-07-29T06:13:01;18.00;99.90
13344;DHT22;6741;48.964;9.406;2023-07-29T06:15:29;18.10;99.90
13344;DHT22;6741;48.964;9.406;2023-07-29T06:17:56;18.30;99.90
13344;DHT22;6741;48.964;9.406;2023-07-29T06:20:23;18.40;99.90
13344;DHT22;6741;48.964;9.406;2023-07-29T06:22:49;18.50;99.90
13344;DHT22;6741;48.964;9.406;2023-07-29T06:25:16;18.50;99.90
13344;DHT22;6741;48.964;9.406;2023-07-29T06:27:43;18.60;99.90
13344;DHT22;6741;48.964;9.406;2023-07-29T06:30:10;18.70;99.90
13344;DHT22;6741;48.964;9.406;2023-07-29T06:32:39;18.80;99.90
13344;DHT22;6741;48.964;9.406;2023-07-29T06:35:06;18.90;99.90
13344;DHT22;6741;48.964;9.406;2023-07-29T06:37:33;18.90;99.90
13344;DHT22;6741;48.964;9.406;2023-07-29T06:40:00;19.00;99.90
13344;DHT22;6741;48.964;9.406;2023-07-29T06:42:27;19.10;99.90
13344;DHT22;6741;48.964;9.406;2023-07-29T06:44:54;19.20;99.90
13344;DHT22;6741;48.964;9.406;2023-07-29T06:47:21;19.30;99.90
13344;DHT22;6741;48.964;9.406;2023-07-29T06:49:49;19.30;99.90
13344;DHT22;6741;48.964;9.406;2023-07-29T06:52:16;19.40;99.90
13344;DHT22;6741;48.964;9.406;2023-07-29T06:54:42;19.40;99.90
13344;DHT22;6741;48.964;9.406;2023-07-29T06:57:09;19.30;99.90
13344;DHT22;6741;48.964;9.406;2023-07-29T06:59:36;19.20;99.90
13344;DHT22;6741;48.964;9.406;2023-07-29T07:02:04;19.20;99.90
13344;DHT22;6741;48.964;9.406;2023-07-29T07:04:30;19.20;99.90
13344;DHT22;6741;48.964;9.406;2023-07-29T07:06:59;19.20;99.90
13344;DHT22;6741;48.964;9.406;2023-07-29T07:09:26;19.20;99.90
13344;DHT22;6741;48.964;9.406;2023-07-29T07:11:53;19.30;99.90
13344;DHT22;6741;48.964;9.406;2023-07-29T07:14:19;19.30;99.90
13344;DHT22;6741;48.964;9.406;2023-07-29T07:16:46;19.50;99.90
13344;DHT22;6741;48.964;9.406;2023-07-29T07:19:13;19.50;99.90
13344;DHT22;6741;48.964;9.406;2023-07-29T07:21:40;19.50;99.90
13344;DHT22;6741;48.964;9.406;2023-07-29T07:24:08;19.50;99.90
13344;DHT22;6741;48.964;9.406;2023-07-29T07:26:35;19.50;99.90
13344;DHT22;6741;48.964;9.406;2023-07-29T07:29:02;19.60;99.90
13344;DHT22;6741;48.964;9.406;2023-07-29T07:31:32;19.60;99.90
13344;DHT22;6741;48.964;9.406;2023-07-29T07:33:59;19.60;99.90
13344;DHT22;6741;48.964;9.406;2023-07-29T07:36:27;19.50;99.90
13344;DHT22;6741;48.964;9.406;2023-07-29T07:38:54;19.40;99.90
13344;DHT22;6741;48.964;9.406;2023-07-29T07:41:22;19.30;99.90
13344;DHT22;6741;48.964;9.406;2023-07-29T07:43:50;19.30;99.90
13344;DHT22;6741;48.964;9.406;2023-07-29T07:46:17;19.30;99.90
13344;DHT22;6741;48.964;9.406;2023-07-29T07:48:44;19.30;99.90
13344;DHT22;6741;48.964;9.406;2023-07-29T07:51:11;19.30;99.90
13344;DHT22;6741;48.964;9.406;2023-07-29T07:53:38;19.30;99.90
13344;DHT22;6741;48.964;9.406;2023-07-29T07:56:05;19.30;99.90
13344;DHT22;6741;48.964;9.406;2023-07-29T07:58:34;19.30;99.90
13344;DHT22;6741;48.964;9.406;2023-07-29T08:01:01;19.30;99.90
13344;DHT22;6741;48.964;9.406;2023-07-29T08:03:28;19.40;99.90
13344;DHT22;6741;48.964;9.406;2023-07-29T08:05:55;19.40;99.90
13344;DHT22;6741;48.964;9.406;2023-07-29T08:08:22;19.50;99.90
13344;DHT22;6741;48.964;9.406;2023-07-29T08:10:49;19.60;99.90
13344;DHT22;6741;48.964;9.406;2023-07-29T08:13:16;19.70;99.90
13344;DHT22;6741;48.964;9.406;2023-07-29T08:15:47;19.80;99.90
13344;DHT22;6741;48.964;9.406;2023-07-29T08:18:14;19.80;99.90
13344;DHT22;6741;48.964;9.406;2023-07-29T08:20:41;20.00;99.90
13344;DHT22;6741;48.964;9.406;2023-07-29T08:23:08;20.20;99.90
13344;DHT22;6741;48.964;9.406;2023-07-29T08:25:35;20.30;99.90
13344;DHT22;6741;48.964;9.406;2023-07-29T08:28:02;20.40;99.90
13344;DHT22;6741;48.964;9.406;2023-07-29T08:30:29;20.50;99.90
13344;DHT22;6741;48.964;9.406;2023-07-29T08:32:57;20.70;99.90
13344;DHT22;6741;48.964;9.406;2023-07-29T08:35:24;21.00;99.90
13344;DHT22;6741;48.964;9.406;2023-07-29T08:37:51;21.20;99.90
13344;DHT22;6741;48.964;9.406;2023-07-29T08:40:17;21.50;99.90
13344;DHT22;6741;48.964;9.406;2023-07-29T08:42:47;21.60;99.90
13344;DHT22;6741;48.964;9.406;2023-07-29T08:45:17;21.30;99.90
13344;DHT22;6741;48.964;9.406;2023-07-29T08:47:44;21.00;99.90
13344;DHT22;6741;48.964;9.406;2023-07-29T08:50:13;20.70;99.90
13344;DHT22;6741;48.964;9.406;2023-07-29T08:52:41;20.70;99.90
13344;DHT22;6741;48.964;9.406;2023-07-29T08:55:10;20.70;99.90
13344;DHT22;6741;48.964;9.406;2023-07-29T08:57:36;20.70;99.90
13344;DHT22;6741;48.964;9.406;2023-07-29T09:00:05;20.90;99.90
13344;DHT22;6741;48.964;9.406;2023-07-29T09:02:32;21.30;99.90
13344;DHT22;6741;48.964;9.406;2023-07-29T09:04:59;21.50;99.90
13344;DHT22;6741;48.964;9.406;2023-07-29T09:07:29;21.70;99.90
13344;DHT22;6741;48.964;9.406;2023-07-29T09:09:56;21.80;99.90
13344;DHT22;6741;48.964;9.406;2023-07-29T09:12:23;21.90;99.90
13344;DHT22;6741;48.964;9.406;2023-07-29T09:14:52;22.00;99.90
13344;DHT22;6741;48.964;9.406;2023-07-29T09:17:20;22.10;99.90
13344;DHT22;6741;48.964;9.406;2023-07-29T09:19:48;22.10;99.90
13344;DHT22;6741;48.964;9.406;2023-07-29T09:22:18;22.40;99.90
13344;DHT22;6741;48.964;9.406;2023-07-29T09:24:47;22.50;99.90
13344;DHT22;6741;48.964;9.406;2023-07-29T09:27:23;22.90;99.90
13344;DHT22;6741;48.964;9.406;2023-07-29T09:29:51;23.40;99.90
13344;DHT22;6741;48.964;9.406;2023-07-29T09:32:18;23.60;99.90
13344;DHT22;6741;48.964;9.406;2023-07-29T09:34:45;23.40;99.90
13344;DHT22;6741;48.964;9.406;2023-07-29T09:37:16;23.00;99.90
13344;DHT22;6741;48.964;9.406;2023-07-29T09:39:46;22.60;99.90
13344;DHT22;6741;48.964;9.406;2023-07-29T09:42:18;22.40;99.90
13344;DHT22;6741;48.964;9.406;2023-07-29T09:44:45;22.50;99.90
13344;DHT22;6741;48.964;9.406;2023-07-29T09:47:19;22.40;99.90
13344;DHT22;6741;48.964;9.406;2023-07-29T09:49:46;22.10;99.90
13344;DHT22;6741;48.964;9.406;2023-07-29T09:52:15;21.90;99.90
13344;DHT22;6741;48.964;9.406;2023-07-29T09:54:42;21.90;99.90
13344;DHT22;6741;48.964;9.406;2023-07-29T09:57:12;21.70;99.90
13344;DHT22;6741;48.964;9.406;2023-07-29T09:59:40;21.50;99.90
13344;DHT22;6741;48.964;9.406;2023-07-29T10:02:13;21.40;99.90
13344;DHT22;6741;48.964;9.406;2023-07-29T10:04:41;21.20;99.90
13344;DHT22;6741;48.964;9.406;2023-07-29T10:07:09;21.10;99.90
13344;DHT22;6741;48.964;9.406;2023-07-29T10:09:37;20.90;99.90
13344;DHT22;6741;48.964;9.406;2023-07-29T10:12:06;20.40;99.90
13344;DHT22;6741;48.964;9.406;2023-07-29T10:14:35;19.50;99.90
13344;DHT22;6741;48.964;9.406;2023-07-29T10:17:04;18.80;99.90
13344;DHT22;6741;48.964;9.406;2023-07-29T10:19:31;18.40;99.90
13344;DHT22;6741;48.964;9.406;2023-07-29T10:21:59;18.10;99.90
13344;DHT22;6741;48.964;9.406;2023-07-29T10:24:30;18.00;99.90
13344;DHT22;6741;48.964;9.406;2023-07-29T10:26:58;18.00;99.90
13344;DHT22;6741;48.964;9.406;2023-07-29T10:29:30;18.10;99.90
13344;DHT22;6741;48.964;9.406;2023-07-29T10:32:02;18.20;99.90
13344;DHT22;6741;48.964;9.406;2023-07-29T10:34:30;18.20;99.90
13344;DHT22;6741;48.964;9.406;2023-07-29T10:36:58;18.30;99.90
13344;DHT22;6741;48.964;9.406;2023-07-29T10:39:25;18.40;99.90
13344;DHT22;6741;48.964;9.406;2023-07-29T10:41:59;18.50;99.90
13344;DHT22;6741;48.964;9.406;2023-07-29T10:44:51;18.70;99.90
13344;DHT22;6741;48.964;9.406;2023-07-29T10:47:23;18.90;99.90
13344;DHT22;6741;48.964;9.406;2023-07-29T10:49:52;19.30;99.90
13344;DHT22;6741;48.964;9.406;2023-07-29T10:52:39;19.90;99.90
13344;DHT22;6741;48.964;9.406;2023-07-29T10:55:27;19.80;99.90
13344;DHT22;6741;48.964;9.406;2023-07-29T10:58:06;19.80;99.90
13344;DHT22;6741;48.964;9.406;2023-07-29T11:00:33;20.00;99.90
13344;DHT22;6741;48.964;9.406;2023-07-29T11:03:03;20.30;99.90
13344;DHT22;6741;48.964;9.406;2023-07-29T11:05:48;20.70;99.90
13344;DHT22;6741;48.964;9.406;2023-07-29T11:08:20;21.10;99.90
13344;DHT22;6741;48.964;9.406;2023-07-29T11:11:03;21.80;99.90
13344;DHT22;6741;48.964;9.406;2023-07-29T11:13:31;22.20;99.90
13344;DHT22;6741;48.964;9.406;2023-07-29T11:15:58;22.10;99.90
13344;DHT22;6741;48.964;9.406;2023-07-29T11:18:29;22.60;99.90
13344;DHT22;6741;48.964;9.406;2023-07-29T11:20:57;23.30;99.90
13344;DHT22;6741;48.964;9.406;2023-07-29T11:23:31;23.50;99.90
13344;DHT22;6741;48.964;9.406;2023-07-29T11:25:58;23.20;99.90
13344;DHT22;6741;48.964;9.406;2023-07-29T11:28:26;23.20;99.90
13344;DHT22;6741;48.964;9.406;2023-07-29T11:30:54;22.60;99.90
13344;DHT22;6741;48.964;9.406;2023-07-29T11:33:23;22.60;99.90
13344;DHT22;6741;48.964;9.406;2023-07-29T11:35:52;22.20;99.90
13344;DHT22;6741;48.964;9.406;2023-07-29T11:38:20;22.50;99.90
13344;DHT22;6741;48.964;9.406;2023-07-29T11:41:00;22.50;99.90
13344;DHT22;6741;48.964;9.406;2023-07-29T11:43:28;22.70;99.90
13344;DHT22;6741;48.964;9.406;2023-07-29T11:45:55;22.80;99.90
13344;DHT22;6741;48.964;9.406;2023-07-29T11:48:30;23.10;99.90
13344;DHT22;6741;48.964;9.406;2023-07-29T11:50:58;23.20;99.90
13344;DHT22;6741;48.964;9.406;2023-07-29T11:53:27;22.90;99.90
13344;DHT22;6741;48.964;9.406;2023-07-29T11:55:54;22.60;99.90
13344;DHT22;6741;48.964;9.406;2023-07-29T11:58:21;22.80;99.90
13344;DHT22;6741;48.964;9.406;2023-07-29T12:00:48;23.20;99.80
13344;DHT22;6741;48.964;9.406;2023-07-29T12:03:16;23.40;99.90
13344;DHT22;6741;48.964;9.406;2023-07-29T12:05:44;23.60;92.00
13344;DHT22;6741;48.964;9.406;2023-07-29T12:08:12;23.10;93.60
13344;DHT22;6741;48.964;9.406;2023-07-29T12:10:40;23.30;95.10
13344;DHT22;6741;48.964;9.406;2023-07-29T12:13:08;23.30;92.80
13344;DHT22;6741;48.964;9.406;2023-07-29T12:15:34;22.90;97.10
13344;DHT22;6741;48.964;9.406;2023-07-29T12:18:04;22.90;92.50
13344;DHT22;6741;48.964;9.406;2023-07-29T12:20:31;22.90;81.50
13344;DHT22;6741;48.964;9.406;2023-07-29T12:22:59;23.00;44.70
13344;DHT22;6741;48.964;9.406;2023-07-29T12:25:29;23.30;31.20
13344;DHT22;6741;48.964;9.406;2023-07-29T12:27:57;23.20;25.30
13344;DHT22;6741;48.964;9.406;2023-07-29T12:30:28;22.80;47.30
13344;DHT22;6741;48.964;9.406;2023-07-29T12:32:55;23.20;34.20
13344;DHT22;6741;48.964;9.406;2023-07-29T12:35:22;23.60;18.10
13344;DHT22;6741;48.964;9.406;2023-07-29T12:37:58;23.70;1.00
13344;DHT22;6741;48.964;9.406;2023-07-29T12:40:26;23.90;1.00
13344;DHT22;6741;48.964;9.406;2023-07-29T12:42:54;23.80;1.00
13344;DHT22;6741;48.964;9.406;2023-07-29T12:45:21;23.20;1.00
13344;DHT22;6741;48.964;9.406;2023-07-29T12:47:52;23.10;25.30
13344;DHT22;6741;48.964;9.406;2023-07-29T12:50:18;23.30;20.80
13344;DHT22;6741;48.964;9.406;2023-07-29T12:52:46;23.30;1.00
13344;DHT22;6741;48.964;9.406;2023-07-29T12:55:13;23.80;1.00
13344;DHT22;6741;48.964;9.406;2023-07-29T12:57:41;24.00;1.00
13344;DHT22;6741;48.964;9.406;2023-07-29T13:00:11;24.30;1.00
13344;DHT22;6741;48.964;9.406;2023-07-29T13:02:38;24.30;1.00
13344;DHT22;6741;48.964;9.406;2023-07-29T13:05:08;24.30;1.00
13344;DHT22;6741;48.964;9.406;2023-07-29T13:07:35;24.10;1.00
13344;DHT22;6741;48.964;9.406;2023-07-29T13:10:03;24.70;1.00
13344;DHT22;6741;48.964;9.406;2023-07-29T13:12:29;25.60;99.90
13344;DHT22;6741;48.964;9.406;2023-07-29T13:14:56;26.40;1.00
13344;DHT22;6741;48.964;9.406;2023-07-29T13:17:25;26.60;1.00
13344;DHT22;6741;48.964;9.406;2023-07-29T13:19:52;26.60;1.00
13344;DHT22;6741;48.964;9.406;2023-07-29T13:22:20;26.70;1.00
13344;DHT22;6741;48.964;9.406;2023-07-29T13:24:47;26.10;1.00
13344;DHT22;6741;48.964;9.406;2023-07-29T13:27:13;26.30;99.90
13344;DHT22;6741;48.964;9.406;2023-07-29T13:29:40;25.70;1.00
13344;DHT22;6741;48.964;9.406;2023-07-29T13:32:09;26.00;97.30
13344;DHT22;6741;48.964;9.406;2023-07-29T13:34:37;26.20;99.90
13344;DHT22;6741;48.964;9.406;2023-07-29T13:37:05;26.10;99.90
13344;DHT22;6741;48.964;9.406;2023-07-29T13:39:32;25.70;1.00
13344;DHT22;6741;48.964;9.406;2023-07-29T13:41:59;25.60;19.70
13344;DHT22;6741;48.964;9.406;2023-07-29T13:44:26;25.20;99.90
13344;DHT22;6741;48.964;9.406;2023-07-29T13:46:53;24.80;1.00
13344;DHT22;6741;48.964;9.406;2023-07-29T13:49:20;24.70;24.20
13344;DHT22;6741;48.964;9.406;2023-07-29T13:51:48;24.70;99.90
13344;DHT22;6741;48.964;9.406;2023-07-29T13:54:15;24.60;1.00
13344;DHT22;6741;48.964;9.406;2023-07-29T13:56:42;24.50;1.00
13344;DHT22;6741;48.964;9.406;2023-07-29T13:59:09;24.50;1.00
13344;DHT22;6741;48.964;9.406;2023-07-29T14:01:36;24.60;1.00
13344;DHT22;6741;48.964;9.406;2023-07-29T14:04:03;24.60;11.30
13344;DHT22;6741;48.964;9.406;2023-07-29T14:06:30;24.40;1.00
13344;DHT22;6741;48.964;9.406;2023-07-29T14:08:58;24.20;99.90
13344;DHT22;6741;48.964;9.406;2023-07-29T14:11:25;24.50;1.00
13344;DHT22;6741;48.964;9.406;2023-07-29T14:13:52;24.70;99.90
13344;DHT22;6741;48.964;9.406;2023-07-29T14:16:19;25.40;1.00
13344;DHT22;6741;48.964;9.406;2023-07-29T14:18:46;25.60;99.90
13344;DHT22;6741;48.964;9.406;2023-07-29T14:21:13;26.50;1.00
13344;DHT22;6741;48.964;9.406;2023-07-29T14:23:40;27.00;99.90
13344;DHT22;6741;48.964;9.406;2023-07-29T14:26:08;28.00;1.00
13344;DHT22;6741;48.964;9.406;2023-07-29T14:28:36;26.90;99.90
13344;DHT22;6741;48.964;9.406;2023-07-29T14:31:03;26.40;99.90
13344;DHT22;6741;48.964;9.406;2023-07-29T14:33:30;26.40;99.90
13344;DHT22;6741;48.964;9.406;2023-07-29T14:35:56;25.40;94.60
13344;DHT22;6741;48.964;9.406;2023-07-29T14:38:23;25.40;99.90
13344;DHT22;6741;48.964;9.406;2023-07-29T14:40:51;25.30;99.90
13344;DHT22;6741;48.964;9.406;2023-07-29T14:43:21;25.20;1.00
13344;DHT22;6741;48.964;9.406;2023-07-29T14:45:48;24.90;1.00
13344;DHT22;6741;48.964;9.406;2023-07-29T14:48:15;24.90;1.00
13344;DHT22;6741;48.964;9.406;2023-07-29T14:50:42;24.90;1.00
13344;DHT22;6741;48.964;9.406;2023-07-29T14:53:09;25.10;1.00
13344;DHT22;6741;48.964;9.406;2023-07-29T14:55:36;25.20;99.90
13344;DHT22;6741;48.964;9.406;2023-07-29T14:58:03;25.90;99.90
13344;DHT22;6741;48.964;9.406;2023-07-29T15:00:31;26.60;1.00
13344;DHT22;6741;48.964;9.406;2023-07-29T15:02:58;27.30;1.00
13344;DHT22;6741;48.964;9.406;2023-07-29T15:05:25;27.30;1.00
13344;DHT22;6741;48.964;9.406;2023-07-29T15:07:52;27.50;1.00
13344;DHT22;6741;48.964;9.406;2023-07-29T15:10:19;26.60;1.00
13344;DHT22;6741;48.964;9.406;2023-07-29T15:12:46;27.00;1.00
13344;DHT22;6741;48.964;9.406;2023-07-29T15:15:16;27.50;1.00
13344;DHT22;6741;48.964;9.406;2023-07-29T15:17:44;27.50;1.00
13344;DHT22;6741;48.964;9.406;2023-07-29T15:20:11;27.90;99.90
13344;DHT22;6741;48.964;9.406;2023-07-29T15:22:38;28.60;1.00
13344;DHT22;6741;48.964;9.406;2023-07-29T15:25:05;28.40;99.90
13344;DHT22;6741;48.964;9.406;2023-07-29T15:27:32;28.10;99.90
13344;DHT22;6741;48.964;9.406;2023-07-29T15:29:59;28.00;1.00
13344;DHT22;6741;48.964;9.406;2023-07-29T15:32:26;27.70;1.00
13344;DHT22;6741;48.964;9.406;2023-07-29T15:34:55;27.80;99.90
13344;DHT22;6741;48.964;9.406;2023-07-29T15:37:22;26.80;1.00
13344;DHT22;6741;48.964;9.406;2023-07-29T15:39:48;26.90;1.00
13344;DHT22;6741;48.964;9.406;2023-07-29T15:42:15;26.30;1.00
13344;DHT22;6741;48.964;9.406;2023-07-29T15:44:42;26.20;1.00
13344;DHT22;6741;48.964;9.406;2023-07-29T15:47:09;26.50;1.00
13344;DHT22;6741;48.964;9.406;2023-07-29T15:49:38;26.70;1.00
13344;DHT22;6741;48.964;9.406;2023-07-29T15:52:07;26.30;28.30